Time;durP1;ratioP1;P1;durP2;ratioP2;P2;SDS_P1;SDS_P2;PMS_P1;PMS_P2;Temp;Humidity;BMP_temperature;BMP_pressure;BME280_temperature;BME280_humidity;BME280_pressure;Samples;Min_cycle;Max_cycle;Signal;HPM_P1;HPM_P2
2023/04/02 00:01:19;;;;;;;;;;;7.70;99.90;;;;;;4989867;28;19953;-93
2023/04/02 00:04:07;;;;;;;;;;;7.70;99.90;;;;;;4983879;28;19950;-93
2023/04/02 00:06:38;;;;;;;;;;;7.70;99.90;;;;;;4971331;28;19925;-95
2023/04/02 00:09:17;;;;;;;;;;;7.70;99.90;;;;;;4972690;28;19982;-93
2023/04/02 00:11:47;;;;;;;;;;;7.70;99.90;;;;;;4963753;28;21403;-95
2023/04/02 00:14:17;;;;;;;;;;;7.70;99.90;;;;;;4969964;28;20309;-92
2023/04/02 00:16:45;;;;;;;;;;;7.70;99.90;;;;;;4967818;28;19969;-95
2023/04/02 00:19:15;;;;;;;;;;;7.70;99.90;;;;;;4964974;28;19933;-93
2023/04/02 00:21:44;;;;;;;;;;;7.70;99.90;;;;;;4984794;28;19933;-94
2023/04/02 00:24:14;;;;;;;;;;;7.70;99.90;;;;;;4968663;28;19926;-93
2023/04/02 00:26:43;;;;;;;;;;;7.60;99.90;;;;;;4974401;28;19926;-93
2023/04/02 00:29:12;;;;;;;;;;;7.70;99.90;;;;;;4965464;28;19926;-94
2023/04/02 00:31:42;;;;;;;;;;;7.70;99.90;;;;;;4968124;28;19930;-94
2023/04/02 00:34:12;;;;;;;;;;;7.60;99.90;;;;;;4984846;28;19930;-92
2023/04/02 00:36:40;;;;;;;;;;;7.60;99.90;;;;;;4962397;28;19930;-94
2023/04/02 00:39:13;;;;;;;;;;;7.60;99.90;;;;;;4967055;28;19930;-92
2023/04/02 00:41:45;;;;;;;;;;;7.60;99.90;;;;;;4987662;28;19989;-95
2023/04/02 00:44:13;;;;;;;;;;;7.60;99.90;;;;;;4982604;28;19926;-96
2023/04/02 00:46:45;;;;;;;;;;;7.60;99.90;;;;;;4990188;28;19922;-95
2023/04/02 00:49:17;;;;;;;;;;;7.60;99.90;;;;;;4968880;28;19973;-94
2023/04/02 00:51:48;;;;;;;;;;;7.60;99.90;;;;;;4969048;28;19927;-94
2023/04/02 00:54:19;;;;;;;;;;;7.60;99.90;;;;;;4967319;28;19934;-93
2023/04/02 00:56:47;;;;;;;;;;;7.60;99.90;;;;;;4983782;28;19926;-95
2023/04/02 00:59:17;;;;;;;;;;;7.60;99.90;;;;;;4969725;28;20162;-95
2023/04/02 01:01:53;;;;;;;;;;;7.50;99.90;;;;;;4960465;28;19930;-94
2023/04/02 01:04:27;;;;;;;;;;;7.50;99.90;;;;;;4983708;28;19930;-93
2023/04/02 01:06:55;;;;;;;;;;;7.50;99.90;;;;;;4968558;28;19933;-93
2023/04/02 01:09:30;;;;;;;;;;;7.50;99.90;;;;;;4968139;28;19930;-93
2023/04/02 01:12:02;;;;;;;;;;;7.50;99.90;;;;;;4981860;28;19993;-93
2023/04/02 01:14:37;;;;;;;;;;;7.50;99.90;;;;;;4972286;28;19933;-93
2023/04/02 01:17:09;;;;;;;;;;;7.50;99.90;;;;;;4971192;28;19926;-94
2023/04/02 01:19:47;;;;;;;;;;;7.40;99.90;;;;;;4973108;28;19935;-94
2023/04/02 01:22:17;;;;;;;;;;;7.40;99.90;;;;;;4971736;28;19926;-93
2023/04/02 01:24:44;;;;;;;;;;;7.50;99.90;;;;;;4965240;28;19969;-94
2023/04/02 01:27:15;;;;;;;;;;;7.50;99.90;;;;;;4972489;28;20250;-92
2023/04/02 01:29:47;;;;;;;;;;;7.40;99.90;;;;;;4973121;28;20293;-93
2023/04/02 01:32:16;;;;;;;;;;;7.40;99.90;;;;;;4971001;28;19932;-94
2023/04/02 01:34:45;;;;;;;;;;;7.40;99.90;;;;;;4973582;28;20096;-93
2023/04/02 01:37:21;;;;;;;;;;;7.50;99.90;;;;;;4968419;28;20179;-93
2023/04/02 01:40:04;;;;;;;;;;;7.40;99.90;;;;;;4976468;28;20042;-96
2023/04/02 01:42:35;;;;;;;;;;;7.40;99.90;;;;;;4968033;28;20283;-93
2023/04/02 01:45:07;;;;;;;;;;;7.40;99.90;;;;;;4978558;28;19964;-94
2023/04/02 01:47:34;;;;;;;;;;;7.40;99.90;;;;;;4979061;28;19930;-94
2023/04/02 01:50:04;;;;;;;;;;;7.40;99.90;;;;;;4980894;28;19930;-94
2023/04/02 01:52:37;;;;;;;;;;;7.40;99.90;;;;;;4968916;28;20312;-93
2023/04/02 01:55:04;;;;;;;;;;;7.30;99.90;;;;;;4970389;28;19940;-93
2023/04/02 01:57:31;;;;;;;;;;;7.30;99.90;;;;;;4971233;28;20341;-94
2023/04/02 01:59:59;;;;;;;;;;;7.30;99.90;;;;;;4984985;28;19934;-93
2023/04/02 02:02:27;;;;;;;;;;;7.30;99.90;;;;;;4966061;28;19934;-93
2023/04/02 02:04:54;;;;;;;;;;;7.30;99.90;;;;;;4975177;28;19930;-93
2023/04/02 02:07:22;;;;;;;;;;;7.30;99.90;;;;;;4967532;28;19931;-94
2023/04/02 02:09:53;;;;;;;;;;;7.30;99.90;;;;;;4978381;28;19957;-93
2023/04/02 02:12:20;;;;;;;;;;;7.30;99.90;;;;;;4971989;28;19934;-93
2023/04/02 02:14:48;;;;;;;;;;;7.30;99.90;;;;;;4971875;28;20384;-93
2023/04/02 02:17:20;;;;;;;;;;;7.20;99.90;;;;;;4990793;28;19933;-93
2023/04/02 02:19:50;;;;;;;;;;;7.20;99.90;;;;;;4971273;28;19973;-94
2023/04/02 02:22:19;;;;;;;;;;;7.20;99.90;;;;;;4977603;28;19940;-93
2023/04/02 02:24:46;;;;;;;;;;;7.20;99.90;;;;;;4973761;28;19934;-95
2023/04/02 02:27:29;;;;;;;;;;;7.20;99.90;;;;;;4976805;28;19926;-93
2023/04/02 02:30:11;;;;;;;;;;;7.20;99.90;;;;;;4969008;28;19950;-94
2023/04/02 02:32:41;;;;;;;;;;;7.20;99.90;;;;;;4971545;28;19938;-92
2023/04/02 02:35:12;;;;;;;;;;;7.20;99.90;;;;;;4974485;28;19930;-93
2023/04/02 02:37:41;;;;;;;;;;;7.20;99.90;;;;;;4973084;28;20070;-94
2023/04/02 02:40:11;;;;;;;;;;;7.10;99.90;;;;;;4973171;28;19996;-93
2023/04/02 02:42:39;;;;;;;;;;;7.10;99.90;;;;;;4968856;28;19926;-93
2023/04/02 02:45:11;;;;;;;;;;;7.10;99.90;;;;;;4972664;28;20405;-93
2023/04/02 02:47:39;;;;;;;;;;;7.10;99.90;;;;;;4967446;28;19927;-92
2023/04/02 02:50:12;;;;;;;;;;;7.10;99.90;;;;;;4968573;28;20021;-93
2023/04/02 02:52:45;;;;;;;;;;;7.10;99.90;;;;;;4974227;28;19938;-93
2023/04/02 02:55:16;;;;;;;;;;;7.10;99.90;;;;;;4976790;28;19926;-94
2023/04/02 02:57:54;;;;;;;;;;;7.10;99.90;;;;;;4994203;28;19926;-94
2023/04/02 03:00:23;;;;;;;;;;;7.10;99.90;;;;;;4970543;28;20329;-93
2023/04/02 03:02:52;;;;;;;;;;;7.00;99.90;;;;;;4975869;28;19941;-94
2023/04/02 03:05:23;;;;;;;;;;;7.00;99.90;;;;;;4974333;28;19973;-94
2023/04/02 03:07:55;;;;;;;;;;;7.00;99.90;;;;;;4971908;28;20052;-92
2023/04/02 03:10:24;;;;;;;;;;;7.00;99.90;;;;;;4977542;28;19940;-95
2023/04/02 03:12:54;;;;;;;;;;;7.00;99.90;;;;;;4976705;28;20001;-93
2023/04/02 03:15:23;;;;;;;;;;;7.00;99.90;;;;;;4988267;28;19935;-93
2023/04/02 03:17:51;;;;;;;;;;;7.00;99.90;;;;;;4970425;28;19934;-94
2023/04/02 03:20:24;;;;;;;;;;;7.00;99.90;;;;;;4972487;28;19961;-93
2023/04/02 03:22:54;;;;;;;;;;;7.00;99.90;;;;;;4976659;28;20074;-93
2023/04/02 03:25:25;;;;;;;;;;;7.00;99.90;;;;;;4969610;28;19934;-93
2023/04/02 03:27:56;;;;;;;;;;;7.00;99.90;;;;;;4972179;28;19938;-93
2023/04/02 03:30:27;;;;;;;;;;;6.90;99.90;;;;;;4992996;28;19934;-95
2023/04/02 03:32:59;;;;;;;;;;;6.90;99.90;;;;;;4973244;28;19933;-93
2023/04/02 03:35:33;;;;;;;;;;;6.90;99.90;;;;;;4973961;28;19926;-96
2023/04/02 03:38:02;;;;;;;;;;;6.90;99.90;;;;;;4968957;28;19969;-93
2023/04/02 03:40:31;;;;;;;;;;;6.90;99.90;;;;;;4968710;28;19926;-93
2023/04/02 03:43:02;;;;;;;;;;;6.90;99.90;;;;;;4987568;28;19956;-93
2023/04/02 03:45:32;;;;;;;;;;;6.90;99.90;;;;;;4974479;28;20052;-93
2023/04/02 03:48:00;;;;;;;;;;;6.90;99.90;;;;;;4973583;28;19958;-94
2023/04/02 03:50:31;;;;;;;;;;;6.80;99.90;;;;;;4976163;28;20408;-94
2023/04/02 03:53:02;;;;;;;;;;;6.80;99.90;;;;;;4992546;28;19926;-94
2023/04/02 03:55:31;;;;;;;;;;;6.80;99.90;;;;;;4983309;28;19926;-96
2023/04/02 03:58:00;;;;;;;;;;;6.80;99.90;;;;;;4978819;28;20006;-94
2023/04/02 04:00:32;;;;;;;;;;;6.80;99.90;;;;;;4978528;28;19938;-96
2023/04/02 04:03:03;;;;;;;;;;;6.80;99.90;;;;;;4985276;28;19930;-93
2023/04/02 04:05:31;;;;;;;;;;;6.80;99.90;;;;;;4982944;28;19968;-92
2023/04/02 04:08:03;;;;;;;;;;;6.80;99.90;;;;;;4980751;28;19930;-94
2023/04/02 04:10:30;;;;;;;;;;;6.80;99.90;;;;;;4982566;28;19954;-94
2023/04/02 04:13:02;;;;;;;;;;;6.80;99.90;;;;;;4978322;28;19927;-94
2023/04/02 04:15:32;;;;;;;;;;;6.80;99.90;;;;;;4981633;28;19925;-96
2023/04/02 04:18:03;;;;;;;;;;;6.80;99.90;;;;;;4986826;28;20229;-94
2023/04/02 04:20:38;;;;;;;;;;;6.80;99.90;;;;;;4976738;28;19931;-93
2023/04/02 04:23:11;;;;;;;;;;;6.70;99.90;;;;;;4978662;28;19949;-94
2023/04/02 04:25:38;;;;;;;;;;;6.70;99.90;;;;;;4973763;28;19930;-96
2023/04/02 04:28:20;;;;;;;;;;;6.70;99.90;;;;;;4983892;28;19937;-95
2023/04/02 04:30:51;;;;;;;;;;;6.70;99.90;;;;;;4980528;28;20480;-96
2023/04/02 04:33:22;;;;;;;;;;;6.70;99.90;;;;;;4975604;28;19926;-96
2023/04/02 04:35:53;;;;;;;;;;;6.70;99.90;;;;;;4976561;28;19930;-95
2023/04/02 04:38:31;;;;;;;;;;;6.70;99.90;;;;;;4978022;28;19940;-95
2023/04/02 04:41:01;;;;;;;;;;;6.70;99.90;;;;;;4981729;28;19926;-95
2023/04/02 04:43:35;;;;;;;;;;;6.70;99.90;;;;;;4979983;28;19926;-94
2023/04/02 04:46:03;;;;;;;;;;;6.60;99.90;;;;;;4981159;28;19961;-96
2023/04/02 04:48:34;;;;;;;;;;;6.70;99.90;;;;;;4975512;28;19974;-95
2023/04/02 04:51:02;;;;;;;;;;;6.60;99.90;;;;;;4986367;28;20404;-95
2023/04/02 04:53:31;;;;;;;;;;;6.70;99.90;;;;;;4983080;28;19933;-95
2023/04/02 04:56:02;;;;;;;;;;;6.60;99.90;;;;;;4982889;28;19926;-95
2023/04/02 04:58:35;;;;;;;;;;;6.60;99.90;;;;;;4978712;28;19933;-95
2023/04/02 05:01:06;;;;;;;;;;;6.60;99.90;;;;;;4982642;28;19926;-95
2023/04/02 05:03:37;;;;;;;;;;;6.60;99.90;;;;;;5000149;28;19930;-96
2023/04/02 05:06:09;;;;;;;;;;;6.60;99.90;;;;;;4986473;28;19930;-94
2023/04/02 05:08:43;;;;;;;;;;;6.60;99.90;;;;;;4979600;28;19927;-95
2023/04/02 05:11:13;;;;;;;;;;;6.60;99.90;;;;;;4983564;28;19954;-96
2023/04/02 05:13:47;;;;;;;;;;;6.60;99.90;;;;;;4982680;28;19930;-96
2023/04/02 05:16:16;;;;;;;;;;;6.60;99.90;;;;;;4985724;28;19941;-94
2023/04/02 05:18:47;;;;;;;;;;;6.50;99.90;;;;;;4987623;28;19926;-95
2023/04/02 05:21:18;;;;;;;;;;;6.50;99.90;;;;;;4982448;28;19950;-96
2023/04/02 05:23:48;;;;;;;;;;;6.50;99.90;;;;;;4978627;28;19926;-96
2023/04/02 05:26:16;;;;;;;;;;;6.50;99.90;;;;;;4964526;28;20005;-93
2023/04/02 05:28:46;;;;;;;;;;;6.50;99.90;;;;;;4966825;28;19926;-91
2023/04/02 05:31:16;;;;;;;;;;;6.50;99.90;;;;;;4964467;28;19982;-96
2023/04/02 05:33:45;;;;;;;;;;;6.40;99.90;;;;;;4968117;28;19976;-94
2023/04/02 05:36:18;;;;;;;;;;;6.50;99.90;;;;;;4972515;28;19926;-93
2023/04/02 05:38:52;;;;;;;;;;;6.50;99.90;;;;;;4987884;28;19930;-96
2023/04/02 05:41:27;;;;;;;;;;;6.50;99.90;;;;;;4985025;28;19930;-93
2023/04/02 05:43:58;;;;;;;;;;;6.40;99.90;;;;;;4969429;28;19981;-94
2023/04/02 05:46:28;;;;;;;;;;;6.40;99.90;;;;;;4963962;28;19968;-94
2023/04/02 05:48:58;;;;;;;;;;;6.40;99.90;;;;;;4972119;28;19969;-93
2023/04/02 05:51:29;;;;;;;;;;;6.40;99.90;;;;;;4970482;28;20055;-94
2023/04/02 05:53:59;;;;;;;;;;;6.40;99.90;;;;;;4965328;28;19973;-94
2023/04/02 05:56:30;;;;;;;;;;;6.40;99.90;;;;;;4964770;28;19985;-93
2023/04/02 05:59:06;;;;;;;;;;;6.40;99.90;;;;;;4974067;28;20470;-94
2023/04/02 06:01:40;;;;;;;;;;;6.40;99.90;;;;;;4966338;28;19988;-95
2023/04/02 06:04:17;;;;;;;;;;;6.40;99.90;;;;;;4984632;28;19926;-94
2023/04/02 06:06:48;;;;;;;;;;;6.40;99.90;;;;;;4968642;28;19937;-94
2023/04/02 06:09:19;;;;;;;;;;;6.40;99.90;;;;;;4970767;28;20294;-94
2023/04/02 06:11:49;;;;;;;;;;;6.40;99.90;;;;;;4974840;28;19934;-93
2023/04/02 06:14:18;;;;;;;;;;;6.40;99.90;;;;;;4971225;28;19927;-94
2023/04/02 06:16:47;;;;;;;;;;;6.40;99.90;;;;;;4971300;28;19932;-94
2023/04/02 06:19:16;;;;;;;;;;;6.40;99.90;;;;;;4974712;28;19930;-96
2023/04/02 06:21:43;;;;;;;;;;;6.40;99.90;;;;;;4972853;28;19926;-96
2023/04/02 06:24:14;;;;;;;;;;;6.40;99.90;;;;;;4964736;28;20380;-91
2023/04/02 06:26:45;;;;;;;;;;;6.30;99.90;;;;;;4972405;28;19930;-95
2023/04/02 06:29:19;;;;;;;;;;;6.40;99.90;;;;;;4970037;28;19926;-96
2023/04/02 06:31:50;;;;;;;;;;;6.40;99.90;;;;;;4973210;28;19926;-95
2023/04/02 06:34:20;;;;;;;;;;;6.40;99.90;;;;;;4968972;28;19926;-96
2023/04/02 06:37:03;;;;;;;;;;;6.40;99.90;;;;;;4969145;28;19948;-93
2023/04/02 06:39:31;;;;;;;;;;;6.40;99.90;;;;;;4986532;28;20408;-93
2023/04/02 06:42:05;;;;;;;;;;;6.40;99.90;;;;;;4970746;28;19961;-92
2023/04/02 06:45:00;;;;;;;;;;;6.30;99.90;;;;;;4973093;28;19972;-93
2023/04/02 06:47:43;;;;;;;;;;;6.40;99.90;;;;;;4974608;28;19933;-94
2023/04/02 06:50:18;;;;;;;;;;;6.30;99.90;;;;;;4970305;28;20220;-94
2023/04/02 06:52:47;;;;;;;;;;;6.30;99.90;;;;;;4996036;28;19989;-95
2023/04/02 06:55:25;;;;;;;;;;;6.40;99.90;;;;;;4976100;28;19935;-96
2023/04/02 06:57:54;;;;;;;;;;;6.30;99.90;;;;;;4971608;28;19930;-94
2023/04/02 07:00:25;;;;;;;;;;;6.40;99.90;;;;;;4971709;28;19926;-95
2023/04/02 07:02:53;;;;;;;;;;;6.30;99.90;;;;;;4973627;28;19965;-92
2023/04/02 07:05:20;;;;;;;;;;;6.30;99.90;;;;;;4972469;28;20416;-94
2023/04/02 07:07:48;;;;;;;;;;;6.40;99.90;;;;;;4973477;28;20393;-94
2023/04/02 07:10:18;;;;;;;;;;;6.40;99.90;;;;;;4969332;28;20072;-94
2023/04/02 07:12:45;;;;;;;;;;;6.40;99.90;;;;;;4973308;28;20119;-93
2023/04/02 07:15:15;;;;;;;;;;;6.40;99.90;;;;;;4984307;28;19934;-93
2023/04/02 07:17:43;;;;;;;;;;;6.40;99.90;;;;;;4967670;28;19938;-94
2023/04/02 07:20:20;;;;;;;;;;;6.40;99.90;;;;;;4967398;28;19926;-94
2023/04/02 07:22:47;;;;;;;;;;;6.40;99.90;;;;;;4965194;28;19926;-93
2023/04/02 07:25:14;;;;;;;;;;;6.40;99.90;;;;;;4970876;28;19950;-93
2023/04/02 07:27:41;;;;;;;;;;;6.40;99.90;;;;;;4968608;28;19926;-96
2023/04/02 07:30:08;;;;;;;;;;;6.40;99.90;;;;;;4967738;28;20413;-93
2023/04/02 07:32:37;;;;;;;;;;;6.40;99.90;;;;;;4965130;28;19942;-96
2023/04/02 07:35:05;;;;;;;;;;;6.40;99.90;;;;;;4962917;28;19940;-94
2023/04/02 07:37:32;;;;;;;;;;;6.40;99.90;;;;;;4964255;28;19934;-93
2023/04/02 07:40:00;;;;;;;;;;;6.50;99.90;;;;;;4972387;28;19994;-96
2023/04/02 07:42:27;;;;;;;;;;;6.50;99.90;;;;;;4985157;28;19926;-94
2023/04/02 07:44:54;;;;;;;;;;;6.50;99.90;;;;;;4963290;28;20301;-96
2023/04/02 07:47:21;;;;;;;;;;;6.50;99.90;;;;;;4973068;28;19977;-94
2023/04/02 07:49:53;;;;;;;;;;;6.50;99.90;;;;;;4980509;28;20037;-96
2023/04/02 07:52:21;;;;;;;;;;;6.50;99.90;;;;;;4984144;28;19926;-94
2023/04/02 07:54:47;;;;;;;;;;;6.50;99.90;;;;;;4978667;28;20483;-94
2023/04/02 07:57:14;;;;;;;;;;;6.50;99.90;;;;;;4980338;28;19922;-95
2023/04/02 07:59:41;;;;;;;;;;;6.50;99.90;;;;;;4989555;28;19934;-94
2023/04/02 08:02:16;;;;;;;;;;;6.60;99.90;;;;;;4954807;28;20409;-94
2023/04/02 08:04:43;;;;;;;;;;;6.50;99.90;;;;;;4958114;28;19962;-93
2023/04/02 08:07:11;;;;;;;;;;;6.60;99.90;;;;;;4960330;28;19934;-93
2023/04/02 08:09:38;;;;;;;;;;;6.60;99.90;;;;;;4954161;28;20397;-95
2023/04/02 08:12:05;;;;;;;;;;;6.60;99.90;;;;;;4970799;28;19973;-94
2023/04/02 08:14:32;;;;;;;;;;;6.70;99.90;;;;;;4962131;28;19934;-93
2023/04/02 08:17:00;;;;;;;;;;;6.80;99.90;;;;;;4973746;28;19932;-92
2023/04/02 08:19:28;;;;;;;;;;;7.00;99.90;;;;;;4969148;28;20025;-94
2023/04/02 08:21:56;;;;;;;;;;;7.00;99.90;;;;;;4964712;28;19926;-94
2023/04/02 08:24:26;;;;;;;;;;;6.90;99.90;;;;;;4963673;28;19945;-94
2023/04/02 08:26:53;;;;;;;;;;;6.80;99.90;;;;;;4999610;28;19993;-94
2023/04/02 08:29:20;;;;;;;;;;;6.80;99.90;;;;;;4963331;28;19934;-94
2023/04/02 08:31:47;;;;;;;;;;;6.80;99.90;;;;;;4958810;28;19930;-92
2023/04/02 08:34:15;;;;;;;;;;;6.80;99.90;;;;;;4959761;28;19931;-91
2023/04/02 08:36:43;;;;;;;;;;;6.90;99.90;;;;;;4960733;28;19941;-93
2023/04/02 08:39:11;;;;;;;;;;;6.90;99.90;;;;;;4961953;28;19949;-92
2023/04/02 08:41:42;;;;;;;;;;;6.90;99.90;;;;;;4961453;28;20150;-95
2023/04/02 08:44:27;;;;;;;;;;;6.90;99.90;;;;;;4962126;28;21632;-91
2023/04/02 08:46:55;;;;;;;;;;;6.90;99.90;;;;;;4953725;28;19941;-94
2023/04/02 08:49:29;;;;;;;;;;;7.00;99.90;;;;;;4962673;28;20286;-92
2023/04/02 08:51:56;;;;;;;;;;;7.00;99.90;;;;;;4979007;28;19960;-94
2023/04/02 08:54:27;;;;;;;;;;;7.00;99.90;;;;;;4966983;28;19996;-93
2023/04/02 08:56:58;;;;;;;;;;;7.20;99.90;;;;;;4961653;28;20034;-93
2023/04/02 08:59:30;;;;;;;;;;;7.20;99.90;;;;;;4968258;28;19938;-96
2023/04/02 09:02:01;;;;;;;;;;;7.20;99.90;;;;;;4969450;28;19926;-91
2023/04/02 09:04:28;;;;;;;;;;;7.20;99.90;;;;;;4980649;28;19923;-92
2023/04/02 09:06:56;;;;;;;;;;;7.20;99.90;;;;;;4980690;28;20107;-94
2023/04/02 09:09:24;;;;;;;;;;;7.20;99.90;;;;;;4973592;28;19927;-93
2023/04/02 09:11:53;;;;;;;;;;;7.30;99.90;;;;;;4972057;28;20300;-92
2023/04/02 09:14:25;;;;;;;;;;;7.30;99.90;;;;;;4959146;28;19940;-93
2023/04/02 09:16:53;;;;;;;;;;;7.30;99.90;;;;;;4963685;28;20487;-91
2023/04/02 09:19:22;;;;;;;;;;;7.30;99.90;;;;;;4966069;28;19927;-91
2023/04/02 09:21:57;;;;;;;;;;;7.30;99.90;;;;;;4967180;28;20431;-94
2023/04/02 09:24:24;;;;;;;;;;;7.30;99.90;;;;;;4965198;28;19930;-91
2023/04/02 09:26:52;;;;;;;;;;;7.30;99.90;;;;;;4965041;28;20009;-93
2023/04/02 09:29:36;;;;;;;;;;;7.40;99.90;;;;;;4981203;28;20059;-91
2023/04/02 09:32:08;;;;;;;;;;;7.40;99.90;;;;;;4982516;28;20151;-94
2023/04/02 09:34:36;;;;;;;;;;;7.40;99.90;;;;;;4971639;28;19930;-93
2023/04/02 09:37:07;;;;;;;;;;;7.40;99.90;;;;;;4967401;28;21129;-93
2023/04/02 09:39:34;;;;;;;;;;;7.40;99.90;;;;;;4968304;28;20021;-92
2023/04/02 09:42:05;;;;;;;;;;;7.40;99.90;;;;;;4967281;28;19926;-94
2023/04/02 09:44:34;;;;;;;;;;;7.40;99.90;;;;;;4967290;28;19985;-91
2023/04/02 09:47:03;;;;;;;;;;;7.50;99.90;;;;;;4963244;28;19930;-91
2023/04/02 09:49:31;;;;;;;;;;;7.60;99.90;;;;;;4981508;28;19934;-94
2023/04/02 09:52:22;;;;;;;;;;;7.50;99.90;;;;;;4972799;28;19926;-93
2023/04/02 09:55:07;;;;;;;;;;;7.60;99.90;;;;;;4953121;28;19957;-92
2023/04/02 09:57:37;;;;;;;;;;;7.60;99.90;;;;;;4966552;28;20453;-92
2023/04/02 10:00:16;;;;;;;;;;;7.60;99.90;;;;;;4965247;28;19977;-93
2023/04/02 10:02:45;;;;;;;;;;;7.60;99.90;;;;;;4970736;28;19926;-93
2023/04/02 10:05:18;;;;;;;;;;;7.70;99.90;;;;;;4961745;28;19933;-92
2023/04/02 10:07:47;;;;;;;;;;;7.70;99.90;;;;;;4965118;28;19926;-94
2023/04/02 10:10:19;;;;;;;;;;;7.80;99.90;;;;;;4963372;28;19927;-93
2023/04/02 10:12:48;;;;;;;;;;;7.90;99.90;;;;;;4965012;28;19942;-93
2023/04/02 10:15:22;;;;;;;;;;;8.20;99.90;;;;;;4960492;28;19969;-92
2023/04/02 10:17:51;;;;;;;;;;;8.40;99.90;;;;;;4964058;28;19957;-92
2023/04/02 10:20:29;;;;;;;;;;;8.30;99.90;;;;;;4963405;28;19934;-96
2023/04/02 10:22:57;;;;;;;;;;;8.20;99.90;;;;;;4967612;28;19934;-91
2023/04/02 10:25:27;;;;;;;;;;;8.20;99.90;;;;;;4964695;28;20304;-94
2023/04/02 10:27:57;;;;;;;;;;;8.20;99.90;;;;;;4965186;28;20725;-92
2023/04/02 10:30:28;;;;;;;;;;;8.20;99.90;;;;;;4957763;28;20732;-94
2023/04/02 10:32:57;;;;;;;;;;;8.20;99.90;;;;;;4960683;28;19941;-91
2023/04/02 10:35:32;;;;;;;;;;;8.20;99.90;;;;;;4964788;28;19934;-92
2023/04/02 10:38:16;;;;;;;;;;;8.20;99.90;;;;;;4959062;28;19974;-93
2023/04/02 10:40:45;;;;;;;;;;;8.20;99.90;;;;;;4956084;28;20419;-92
2023/04/02 10:43:28;;;;;;;;;;;8.30;99.90;;;;;;4957838;28;19926;-86
2023/04/02 10:46:03;;;;;;;;;;;8.20;99.90;;;;;;4962153;28;19930;-92
2023/04/02 10:48:34;;;;;;;;;;;8.20;99.90;;;;;;4959165;28;20241;-91
2023/04/02 10:51:03;;;;;;;;;;;8.20;99.90;;;;;;4962355;28;19926;-91
2023/04/02 10:53:33;;;;;;;;;;;8.20;99.90;;;;;;4961272;28;19934;-90
2023/04/02 10:56:04;;;;;;;;;;;8.20;99.90;;;;;;4964668;28;20389;-92
2023/04/02 10:58:33;;;;;;;;;;;8.30;99.90;;;;;;4959866;28;19934;-93
2023/04/02 11:01:05;;;;;;;;;;;8.30;99.90;;;;;;4974576;28;19926;-91
2023/04/02 11:03:35;;;;;;;;;;;8.30;99.90;;;;;;4973557;28;19985;-90
2023/04/02 11:06:06;;;;;;;;;;;8.30;99.90;;;;;;4961957;28;19934;-91
2023/04/02 11:08:40;;;;;;;;;;;8.30;99.90;;;;;;4962979;28;20025;-90
2023/04/02 11:11:09;;;;;;;;;;;8.30;99.90;;;;;;4960867;28;19934;-88
2023/04/02 11:13:40;;;;;;;;;;;8.30;99.90;;;;;;4961751;28;20008;-89
2023/04/02 11:16:13;;;;;;;;;;;8.30;99.90;;;;;;4958755;28;19930;-93
2023/04/02 11:18:41;;;;;;;;;;;8.40;99.90;;;;;;4965378;28;20422;-95
2023/04/02 11:21:08;;;;;;;;;;;8.40;99.90;;;;;;4969620;28;19934;-92
2023/04/02 11:23:38;;;;;;;;;;;8.40;99.90;;;;;;4962448;28;19930;-92
2023/04/02 11:26:23;;;;;;;;;;;8.40;99.90;;;;;;4964865;28;19926;-93
2023/04/02 11:29:00;;;;;;;;;;;8.40;99.90;;;;;;4982317;28;19926;-95
2023/04/02 11:31:28;;;;;;;;;;;8.40;99.90;;;;;;4987967;28;19930;-92
2023/04/02 11:33:55;;;;;;;;;;;8.40;99.90;;;;;;4966375;28;20135;-95
2023/04/02 11:36:41;;;;;;;;;;;8.50;99.90;;;;;;4980794;28;20463;-93
2023/04/02 11:39:10;;;;;;;;;;;8.50;99.90;;;;;;4964906;28;19926;-92
2023/04/02 11:41:55;;;;;;;;;;;8.50;99.90;;;;;;4962398;28;19935;-92
2023/04/02 11:44:23;;;;;;;;;;;8.50;99.90;;;;;;4961458;28;19953;-95
2023/04/02 11:46:51;;;;;;;;;;;8.50;99.90;;;;;;4965572;28;19926;-93
2023/04/02 11:49:56;;;;;;;;;;;8.60;99.90;;;;;;4966977;28;19941;-92
2023/04/02 11:52:24;;;;;;;;;;;8.50;99.90;;;;;;4961741;28;19926;-92
2023/04/02 11:55:09;;;;;;;;;;;8.60;99.90;;;;;;4967644;28;19934;-92
2023/04/02 11:57:44;;;;;;;;;;;8.60;99.90;;;;;;4962813;28;19941;-92
2023/04/02 12:00:26;;;;;;;;;;;8.60;99.90;;;;;;4964646;28;19930;-94
2023/04/02 12:03:03;;;;;;;;;;;8.60;99.90;;;;;;4934891;28;19937;-94
2023/04/02 12:05:35;;;;;;;;;;;8.60;99.90;;;;;;4966954;28;19934;-92
2023/04/02 12:08:11;;;;;;;;;;;8.70;99.90;;;;;;4965866;28;19926;-93
2023/04/02 12:10:50;;;;;;;;;;;8.80;99.90;;;;;;4963975;28;19926;-93
2023/04/02 12:13:18;;;;;;;;;;;8.80;99.90;;;;;;4960645;28;19930;-93
2023/04/02 12:15:46;;;;;;;;;;;8.80;99.90;;;;;;4960687;28;19926;-95
2023/04/02 12:18:16;;;;;;;;;;;8.80;99.90;;;;;;4964427;28;19945;-96
2023/04/02 12:20:47;;;;;;;;;;;8.80;99.90;;;;;;4963635;28;19930;-94
2023/04/02 12:23:17;;;;;;;;;;;8.80;99.90;;;;;;4970623;28;19926;-93
2023/04/02 12:25:45;;;;;;;;;;;8.80;99.90;;;;;;4964583;28;19934;-93
2023/04/02 12:28:16;;;;;;;;;;;8.80;99.90;;;;;;4962087;28;19931;-93
2023/04/02 12:30:44;;;;;;;;;;;8.80;99.90;;;;;;4962632;28;20351;-94
2023/04/02 12:33:26;;;;;;;;;;;8.80;99.90;;;;;;4966075;28;19926;-92
2023/04/02 12:35:56;;;;;;;;;;;8.80;99.90;;;;;;4959948;28;19934;-92
2023/04/02 12:38:23;;;;;;;;;;;8.90;99.90;;;;;;4966860;28;20008;-94
2023/04/02 12:40:54;;;;;;;;;;;8.90;99.90;;;;;;4964408;28;21167;-94
2023/04/02 12:43:25;;;;;;;;;;;8.90;99.90;;;;;;4966542;28;19930;-94
2023/04/02 12:45:53;;;;;;;;;;;8.90;99.90;;;;;;4966070;28;20420;-94
2023/04/02 12:48:21;;;;;;;;;;;8.90;99.90;;;;;;4981703;28;19952;-95
2023/04/02 12:50:49;;;;;;;;;;;8.90;99.90;;;;;;4965270;28;19957;-94
2023/04/02 12:53:21;;;;;;;;;;;8.90;99.90;;;;;;4977648;28;19973;-95
2023/04/02 12:55:49;;;;;;;;;;;9.00;99.90;;;;;;4957609;28;20340;-88
2023/04/02 12:58:25;;;;;;;;;;;9.00;99.90;;;;;;4956590;28;20415;-91
2023/04/02 13:00:52;;;;;;;;;;;9.00;99.90;;;;;;4948604;28;21195;-75
2023/04/02 13:03:21;;;;;;;;;;;9.00;99.90;;;;;;4963154;28;19981;-92
2023/04/02 13:05:54;;;;;;;;;;;9.10;99.90;;;;;;4974384;28;19926;-93
2023/04/02 13:08:23;;;;;;;;;;;9.10;99.90;;;;;;4973987;28;19965;-92
2023/04/02 13:10:55;;;;;;;;;;;9.10;99.90;;;;;;4981922;28;19926;-94
2023/04/02 13:13:28;;;;;;;;;;;9.10;99.90;;;;;;4990388;28;20125;-92
2023/04/02 13:16:04;;;;;;;;;;;9.10;99.90;;;;;;4975178;28;19926;-92
2023/04/02 13:18:36;;;;;;;;;;;9.10;99.90;;;;;;4988845;28;19926;-91
2023/04/02 13:21:04;;;;;;;;;;;9.10;99.90;;;;;;4977501;28;19976;-92
2023/04/02 13:23:34;;;;;;;;;;;9.20;99.90;;;;;;4976676;28;19926;-92
2023/04/02 13:26:05;;;;;;;;;;;9.20;99.90;;;;;;4976508;28;19925;-93
2023/04/02 13:28:33;;;;;;;;;;;9.20;99.90;;;;;;4976094;28;19930;-92
2023/04/02 13:31:00;;;;;;;;;;;9.20;99.90;;;;;;4977386;28;19930;-92
2023/04/02 13:33:28;;;;;;;;;;;9.20;99.90;;;;;;4975381;28;19930;-92
2023/04/02 13:35:57;;;;;;;;;;;9.20;99.90;;;;;;4979063;28;19930;-93
2023/04/02 13:38:24;;;;;;;;;;;9.20;99.90;;;;;;4980636;28;19973;-93
2023/04/02 13:40:51;;;;;;;;;;;9.20;99.90;;;;;;4972362;28;20028;-93
2023/04/02 13:43:19;;;;;;;;;;;9.20;99.90;;;;;;4975262;28;19934;-93
2023/04/02 13:45:48;;;;;;;;;;;9.20;99.90;;;;;;4975664;28;19934;-93
2023/04/02 13:48:17;;;;;;;;;;;9.30;99.90;;;;;;4973765;28;19933;-94
2023/04/02 13:50:47;;;;;;;;;;;9.30;99.90;;;;;;4966396;28;19938;-93
2023/04/02 13:53:20;;;;;;;;;;;9.30;99.90;;;;;;4968272;28;19954;-91
2023/04/02 13:55:48;;;;;;;;;;;9.30;99.90;;;;;;4974251;28;20238;-93
2023/04/02 13:58:19;;;;;;;;;;;9.30;99.90;;;;;;4977162;28;19926;-93
2023/04/02 14:00:47;;;;;;;;;;;9.40;99.90;;;;;;4974537;28;19957;-94
2023/04/02 14:03:21;;;;;;;;;;;9.40;99.90;;;;;;4983552;28;19930;-93
2023/04/02 14:05:52;;;;;;;;;;;9.40;99.90;;;;;;4979534;28;19963;-95
2023/04/02 14:08:23;;;;;;;;;;;9.40;99.90;;;;;;4986223;28;19950;-96
2023/04/02 14:11:02;;;;;;;;;;;9.40;99.90;;;;;;4977279;28;19938;-94
2023/04/02 14:13:40;;;;;;;;;;;9.40;99.90;;;;;;4980572;28;19926;-93
2023/04/02 14:16:26;;;;;;;;;;;9.50;99.90;;;;;;4985033;28;19929;-92
2023/04/02 14:19:05;;;;;;;;;;;9.50;99.90;;;;;;4980278;28;20017;-93
2023/04/02 14:21:45;;;;;;;;;;;9.50;99.90;;;;;;4980881;28;19925;-93
2023/04/02 14:24:29;;;;;;;;;;;9.50;99.90;;;;;;4977711;28;19926;-92
2023/04/02 14:27:07;;;;;;;;;;;9.60;99.90;;;;;;4979488;28;19930;-95
2023/04/02 14:29:45;;;;;;;;;;;9.60;99.90;;;;;;4983963;28;19926;-93
2023/04/02 14:35:24;;;;;;;;;;;9.60;99.90;;;;;;4979623;28;19927;-93
2023/04/02 14:38:03;;;;;;;;;;;9.60;99.90;;;;;;4980561;28;19926;-94
2023/04/02 14:40:50;;;;;;;;;;;9.60;99.90;;;;;;4978157;28;19927;-95
2023/04/02 14:43:26;;;;;;;;;;;9.60;99.90;;;;;;4981989;28;19930;-93
2023/04/02 14:45:59;;;;;;;;;;;9.60;99.90;;;;;;4977517;28;20035;-92
2023/04/02 14:49:05;;;;;;;;;;;9.60;99.90;;;;;;4984551;28;19926;-93
2023/04/02 14:55:03;;;;;;;;;;;9.70;99.90;;;;;;4979427;28;19923;-94
2023/04/02 14:57:32;;;;;;;;;;;9.70;99.90;;;;;;4971557;28;19926;-96
2023/04/02 15:00:02;;;;;;;;;;;9.80;99.90;;;;;;4971976;28;19941;-93
2023/04/02 15:02:34;;;;;;;;;;;9.80;99.90;;;;;;4961094;28;19926;-94